sensor_id;sensor_type;location;lat;lon;timestamp;P1;durP1;ratioP1;P2;durP2;ratioP2
75165;SDS011;63747;48.042;10.088;2023-03-03T00:01:10;65.80;;;35.33;;
75165;SDS011;63747;48.042;10.088;2023-03-03T00:04:10;68.03;;;36.60;;
75165;SDS011;63747;48.042;10.088;2023-03-03T00:07:11;64.80;;;35.90;;
75165;SDS011;63747;48.042;10.088;2023-03-03T00:10:14;69.70;;;36.50;;
75165;SDS011;63747;48.042;10.088;2023-03-03T00:13:16;65.67;;;35.93;;
75165;SDS011;63747;48.042;10.088;2023-03-03T00:19:30;65.30;;;36.00;;
75165;SDS011;63747;48.042;10.088;2023-03-03T00:22:37;68.35;;;36.78;;
75165;SDS011;63747;48.042;10.088;2023-03-03T00:25:39;68.63;;;37.50;;
75165;SDS011;63747;48.042;10.088;2023-03-03T00:28:47;62.55;;;35.75;;
75165;SDS011;63747;48.042;10.088;2023-03-03T00:31:53;63.10;;;36.00;;
75165;SDS011;63747;48.042;10.088;2023-03-03T00:34:55;63.05;;;35.25;;
75165;SDS011;63747;48.042;10.088;2023-03-03T00:38:09;61.75;;;34.95;;
75165;SDS011;63747;48.042;10.088;2023-03-03T00:51:41;66.68;;;35.97;;
75165;SDS011;63747;48.042;10.088;2023-03-03T00:54:43;64.70;;;35.35;;
75165;SDS011;63747;48.042;10.088;2023-03-03T00:57:44;60.28;;;35.53;;
75165;SDS011;63747;48.042;10.088;2023-03-03T01:00:45;63.57;;;35.43;;
75165;SDS011;63747;48.042;10.088;2023-03-03T01:03:45;65.13;;;36.27;;
75165;SDS011;63747;48.042;10.088;2023-03-03T01:06:46;68.03;;;35.67;;
75165;SDS011;63747;48.042;10.088;2023-03-03T01:09:48;64.57;;;36.33;;
75165;SDS011;63747;48.042;10.088;2023-03-03T01:12:49;61.87;;;35.60;;
75165;SDS011;63747;48.042;10.088;2023-03-03T01:15:50;62.87;;;35.20;;
75165;SDS011;63747;48.042;10.088;2023-03-03T01:18:51;59.47;;;35.45;;
75165;SDS011;63747;48.042;10.088;2023-03-03T01:21:51;64.80;;;35.87;;
75165;SDS011;63747;48.042;10.088;2023-03-03T01:24:52;66.93;;;36.20;;
75165;SDS011;63747;48.042;10.088;2023-03-03T01:27:53;57.93;;;35.23;;
75165;SDS011;63747;48.042;10.088;2023-03-03T01:30:54;66.40;;;35.97;;
75165;SDS011;63747;48.042;10.088;2023-03-03T01:33:59;63.25;;;35.95;;
75165;SDS011;63747;48.042;10.088;2023-03-03T01:36:59;62.40;;;35.93;;
75165;SDS011;63747;48.042;10.088;2023-03-03T01:40:00;63.87;;;36.77;;
75165;SDS011;63747;48.042;10.088;2023-03-03T01:43:02;60.92;;;35.33;;
75165;SDS011;63747;48.042;10.088;2023-03-03T01:49:10;58.95;;;35.00;;
75165;SDS011;63747;48.042;10.088;2023-03-03T01:52:25;67.75;;;36.58;;
75165;SDS011;63747;48.042;10.088;2023-03-03T01:55:34;68.53;;;37.60;;
75165;SDS011;63747;48.042;10.088;2023-03-03T01:58:38;65.40;;;37.28;;
75165;SDS011;63747;48.042;10.088;2023-03-03T02:01:43;61.28;;;35.28;;
75165;SDS011;63747;48.042;10.088;2023-03-03T02:04:46;60.22;;;36.03;;
75165;SDS011;63747;48.042;10.088;2023-03-03T02:07:49;61.20;;;34.30;;
75165;SDS011;63747;48.042;10.088;2023-03-03T02:13:52;65.45;;;34.70;;
75165;SDS011;63747;48.042;10.088;2023-03-03T02:16:52;61.93;;;35.37;;
75165;SDS011;63747;48.042;10.088;2023-03-03T02:20:08;58.87;;;35.20;;
75165;SDS011;63747;48.042;10.088;2023-03-03T02:23:12;65.03;;;36.35;;
75165;SDS011;63747;48.042;10.088;2023-03-03T02:26:15;65.35;;;35.95;;
75165;SDS011;63747;48.042;10.088;2023-03-03T02:29:18;65.50;;;35.08;;
75165;SDS011;63747;48.042;10.088;2023-03-03T02:32:19;63.63;;;36.47;;
75165;SDS011;63747;48.042;10.088;2023-03-03T02:35:41;62.67;;;37.07;;
75165;SDS011;63747;48.042;10.088;2023-03-03T02:41:54;62.92;;;35.75;;
75165;SDS011;63747;48.042;10.088;2023-03-03T02:45:00;59.33;;;34.30;;
75165;SDS011;63747;48.042;10.088;2023-03-03T02:48:00;58.90;;;34.10;;
75165;SDS011;63747;48.042;10.088;2023-03-03T02:51:01;63.40;;;36.03;;
75165;SDS011;63747;48.042;10.088;2023-03-03T02:54:02;64.40;;;35.27;;
75165;SDS011;63747;48.042;10.088;2023-03-03T02:57:03;63.28;;;36.42;;
75165;SDS011;63747;48.042;10.088;2023-03-03T03:00:05;64.40;;;35.70;;
75165;SDS011;63747;48.042;10.088;2023-03-03T03:03:06;59.22;;;34.65;;
75165;SDS011;63747;48.042;10.088;2023-03-03T03:06:07;60.60;;;34.30;;
75165;SDS011;63747;48.042;10.088;2023-03-03T03:09:07;65.63;;;37.20;;
75165;SDS011;63747;48.042;10.088;2023-03-03T03:12:09;59.08;;;34.95;;
75165;SDS011;63747;48.042;10.088;2023-03-03T03:15:11;60.13;;;34.65;;
75165;SDS011;63747;48.042;10.088;2023-03-03T03:18:12;60.60;;;35.13;;
75165;SDS011;63747;48.042;10.088;2023-03-03T03:21:13;59.17;;;35.25;;
75165;SDS011;63747;48.042;10.088;2023-03-03T03:24:14;58.70;;;34.47;;
75165;SDS011;63747;48.042;10.088;2023-03-03T03:27:14;66.07;;;36.70;;
75165;SDS011;63747;48.042;10.088;2023-03-03T03:30:15;63.03;;;35.43;;
75165;SDS011;63747;48.042;10.088;2023-03-03T03:33:16;58.77;;;34.83;;
75165;SDS011;63747;48.042;10.088;2023-03-03T03:36:16;61.90;;;34.37;;
75165;SDS011;63747;48.042;10.088;2023-03-03T03:39:17;59.33;;;35.43;;
75165;SDS011;63747;48.042;10.088;2023-03-03T03:42:18;64.10;;;35.93;;
75165;SDS011;63747;48.042;10.088;2023-03-03T03:45:19;64.00;;;35.60;;
75165;SDS011;63747;48.042;10.088;2023-03-03T03:48:20;63.53;;;35.72;;
75165;SDS011;63747;48.042;10.088;2023-03-03T03:51:21;60.88;;;35.20;;
75165;SDS011;63747;48.042;10.088;2023-03-03T03:54:21;63.03;;;35.63;;
75165;SDS011;63747;48.042;10.088;2023-03-03T03:57:22;66.93;;;36.22;;
75165;SDS011;63747;48.042;10.088;2023-03-03T04:00:23;65.77;;;36.30;;
75165;SDS011;63747;48.042;10.088;2023-03-03T04:03:24;62.73;;;35.90;;
75165;SDS011;63747;48.042;10.088;2023-03-03T04:06:26;60.05;;;35.55;;
75165;SDS011;63747;48.042;10.088;2023-03-03T04:09:26;60.37;;;36.87;;
75165;SDS011;63747;48.042;10.088;2023-03-03T04:12:27;65.00;;;37.90;;
75165;SDS011;63747;48.042;10.088;2023-03-03T04:15:28;63.00;;;36.23;;
75165;SDS011;63747;48.042;10.088;2023-03-03T04:18:28;63.50;;;36.13;;
75165;SDS011;63747;48.042;10.088;2023-03-03T04:21:29;64.93;;;36.87;;
75165;SDS011;63747;48.042;10.088;2023-03-03T04:24:29;67.57;;;37.80;;
75165;SDS011;63747;48.042;10.088;2023-03-03T04:27:31;69.10;;;39.23;;
75165;SDS011;63747;48.042;10.088;2023-03-03T04:33:32;63.63;;;35.67;;
75165;SDS011;63747;48.042;10.088;2023-03-03T04:36:33;67.50;;;37.23;;
75165;SDS011;63747;48.042;10.088;2023-03-03T04:39:34;61.73;;;36.40;;
75165;SDS011;63747;48.042;10.088;2023-03-03T04:42:34;65.50;;;37.23;;
75165;SDS011;63747;48.042;10.088;2023-03-03T04:45:36;62.25;;;36.08;;
75165;SDS011;63747;48.042;10.088;2023-03-03T04:48:37;69.60;;;37.00;;
75165;SDS011;63747;48.042;10.088;2023-03-03T04:51:37;62.57;;;36.33;;
75165;SDS011;63747;48.042;10.088;2023-03-03T04:54:38;61.73;;;37.30;;
75165;SDS011;63747;48.042;10.088;2023-03-03T04:57:39;63.17;;;37.37;;
75165;SDS011;63747;48.042;10.088;2023-03-03T05:00:39;63.17;;;37.87;;
75165;SDS011;63747;48.042;10.088;2023-03-03T05:03:40;65.17;;;36.57;;
75165;SDS011;63747;48.042;10.088;2023-03-03T05:06:41;67.78;;;37.70;;
75165;SDS011;63747;48.042;10.088;2023-03-03T05:09:42;62.37;;;36.20;;
75165;SDS011;63747;48.042;10.088;2023-03-03T05:12:42;70.33;;;38.10;;
75165;SDS011;63747;48.042;10.088;2023-03-03T05:15:47;69.80;;;37.13;;
75165;SDS011;63747;48.042;10.088;2023-03-03T05:18:49;67.10;;;37.20;;
75165;SDS011;63747;48.042;10.088;2023-03-03T05:21:49;59.57;;;36.10;;
75165;SDS011;63747;48.042;10.088;2023-03-03T05:24:50;71.90;;;39.53;;
75165;SDS011;63747;48.042;10.088;2023-03-03T05:27:51;66.07;;;37.47;;
75165;SDS011;63747;48.042;10.088;2023-03-03T05:30:53;66.97;;;37.55;;
75165;SDS011;63747;48.042;10.088;2023-03-03T05:33:54;69.73;;;38.47;;
75165;SDS011;63747;48.042;10.088;2023-03-03T05:36:55;65.57;;;38.53;;
75165;SDS011;63747;48.042;10.088;2023-03-03T05:39:55;70.07;;;37.97;;
75165;SDS011;63747;48.042;10.088;2023-03-03T05:42:56;70.50;;;38.87;;
75165;SDS011;63747;48.042;10.088;2023-03-03T05:45:57;71.27;;;39.60;;
75165;SDS011;63747;48.042;10.088;2023-03-03T05:48:58;73.18;;;38.83;;
75165;SDS011;63747;48.042;10.088;2023-03-03T05:51:59;67.07;;;37.90;;
75165;SDS011;63747;48.042;10.088;2023-03-03T05:54:59;66.53;;;37.93;;
75165;SDS011;63747;48.042;10.088;2023-03-03T05:58:00;66.87;;;37.07;;
75165;SDS011;63747;48.042;10.088;2023-03-03T06:01:01;68.77;;;38.60;;
75165;SDS011;63747;48.042;10.088;2023-03-03T06:04:01;68.40;;;39.30;;
75165;SDS011;63747;48.042;10.088;2023-03-03T06:07:02;62.87;;;37.67;;
75165;SDS011;63747;48.042;10.088;2023-03-03T06:10:03;67.53;;;38.43;;
75165;SDS011;63747;48.042;10.088;2023-03-03T06:13:04;64.20;;;38.30;;
75165;SDS011;63747;48.042;10.088;2023-03-03T06:16:05;67.87;;;38.03;;
75165;SDS011;63747;48.042;10.088;2023-03-03T06:19:05;71.40;;;39.77;;
75165;SDS011;63747;48.042;10.088;2023-03-03T06:22:06;68.50;;;38.63;;
75165;SDS011;63747;48.042;10.088;2023-03-03T06:25:08;68.63;;;40.13;;
75165;SDS011;63747;48.042;10.088;2023-03-03T06:28:09;66.23;;;38.20;;
75165;SDS011;63747;48.042;10.088;2023-03-03T06:31:09;69.43;;;39.53;;
75165;SDS011;63747;48.042;10.088;2023-03-03T06:34:10;66.83;;;38.93;;
75165;SDS011;63747;48.042;10.088;2023-03-03T06:37:10;64.63;;;38.57;;
75165;SDS011;63747;48.042;10.088;2023-03-03T06:40:11;66.60;;;37.63;;
75165;SDS011;63747;48.042;10.088;2023-03-03T06:43:12;70.28;;;39.25;;
75165;SDS011;63747;48.042;10.088;2023-03-03T06:46:13;76.90;;;41.57;;
75165;SDS011;63747;48.042;10.088;2023-03-03T06:49:14;72.03;;;41.63;;
75165;SDS011;63747;48.042;10.088;2023-03-03T06:52:19;77.90;;;40.53;;
75165;SDS011;63747;48.042;10.088;2023-03-03T06:55:23;71.63;;;39.58;;
75165;SDS011;63747;48.042;10.088;2023-03-03T06:58:24;73.03;;;41.57;;
75165;SDS011;63747;48.042;10.088;2023-03-03T07:01:29;71.80;;;40.60;;
75165;SDS011;63747;48.042;10.088;2023-03-03T07:04:36;71.90;;;38.75;;
75165;SDS011;63747;48.042;10.088;2023-03-03T07:10:38;68.25;;;38.08;;
75165;SDS011;63747;48.042;10.088;2023-03-03T07:13:43;60.70;;;36.03;;
75165;SDS011;63747;48.042;10.088;2023-03-03T07:16:50;68.53;;;38.35;;
75165;SDS011;63747;48.042;10.088;2023-03-03T07:19:55;65.72;;;38.55;;
75165;SDS011;63747;48.042;10.088;2023-03-03T07:22:56;62.97;;;38.73;;
75165;SDS011;63747;48.042;10.088;2023-03-03T07:25:57;68.18;;;38.30;;
75165;SDS011;63747;48.042;10.088;2023-03-03T07:32:20;65.95;;;39.03;;
75165;SDS011;63747;48.042;10.088;2023-03-03T07:35:28;67.85;;;39.08;;
75165;SDS011;63747;48.042;10.088;2023-03-03T07:38:37;64.28;;;38.70;;
75165;SDS011;63747;48.042;10.088;2023-03-03T07:41:41;59.83;;;36.85;;
75165;SDS011;63747;48.042;10.088;2023-03-03T07:44:42;64.97;;;38.50;;
75165;SDS011;63747;48.042;10.088;2023-03-03T07:47:44;67.95;;;39.60;;
75165;SDS011;63747;48.042;10.088;2023-03-03T07:50:45;70.00;;;39.97;;
75165;SDS011;63747;48.042;10.088;2023-03-03T07:53:48;67.07;;;38.92;;
75165;SDS011;63747;48.042;10.088;2023-03-03T07:56:48;62.10;;;37.67;;
75165;SDS011;63747;48.042;10.088;2023-03-03T07:59:54;71.83;;;39.33;;
75165;SDS011;63747;48.042;10.088;2023-03-03T08:03:04;66.10;;;39.17;;
75165;SDS011;63747;48.042;10.088;2023-03-03T08:09:37;69.55;;;40.08;;
75165;SDS011;63747;48.042;10.088;2023-03-03T08:12:41;69.75;;;39.95;;
75165;SDS011;63747;48.042;10.088;2023-03-03T08:15:44;73.45;;;40.65;;
75165;SDS011;63747;48.042;10.088;2023-03-03T08:18:47;76.05;;;42.13;;
75165;SDS011;63747;48.042;10.088;2023-03-03T08:21:50;66.85;;;40.00;;
75165;SDS011;63747;48.042;10.088;2023-03-03T08:24:51;69.35;;;39.95;;
75165;SDS011;63747;48.042;10.088;2023-03-03T08:27:52;73.83;;;40.60;;
75165;SDS011;63747;48.042;10.088;2023-03-03T08:30:53;66.57;;;40.10;;
75165;SDS011;63747;48.042;10.088;2023-03-03T08:33:54;72.33;;;42.20;;
75165;SDS011;63747;48.042;10.088;2023-03-03T08:36:54;68.63;;;40.37;;
75165;SDS011;63747;48.042;10.088;2023-03-03T08:39:57;70.38;;;40.10;;
75165;SDS011;63747;48.042;10.088;2023-03-03T08:42:58;67.63;;;41.23;;
75165;SDS011;63747;48.042;10.088;2023-03-03T08:45:59;72.63;;;40.20;;
75165;SDS011;63747;48.042;10.088;2023-03-03T08:49:01;69.68;;;41.33;;
75165;SDS011;63747;48.042;10.088;2023-03-03T08:52:02;64.88;;;39.88;;
75165;SDS011;63747;48.042;10.088;2023-03-03T08:55:03;68.93;;;41.17;;
75165;SDS011;63747;48.042;10.088;2023-03-03T08:58:04;69.88;;;39.47;;
75165;SDS011;63747;48.042;10.088;2023-03-03T09:01:05;66.90;;;40.00;;
75165;SDS011;63747;48.042;10.088;2023-03-03T09:04:06;72.63;;;41.47;;
75165;SDS011;63747;48.042;10.088;2023-03-03T09:07:06;66.30;;;39.60;;
75165;SDS011;63747;48.042;10.088;2023-03-03T09:10:08;65.00;;;39.30;;
75165;SDS011;63747;48.042;10.088;2023-03-03T09:13:13;64.80;;;39.38;;
75165;SDS011;63747;48.042;10.088;2023-03-03T09:16:15;82.85;;;48.15;;
75165;SDS011;63747;48.042;10.088;2023-03-03T09:22:25;70.53;;;41.13;;
75165;SDS011;63747;48.042;10.088;2023-03-03T09:25:32;73.55;;;42.25;;
75165;SDS011;63747;48.042;10.088;2023-03-03T09:28:34;66.70;;;40.72;;
75165;SDS011;63747;48.042;10.088;2023-03-03T09:34:45;70.75;;;42.22;;
75165;SDS011;63747;48.042;10.088;2023-03-03T09:37:46;63.80;;;40.33;;
75165;SDS011;63747;48.042;10.088;2023-03-03T09:54:49;66.05;;;41.33;;
75165;SDS011;63747;48.042;10.088;2023-03-03T10:01:40;63.40;;;39.05;;
75165;SDS011;63747;48.042;10.088;2023-03-03T10:04:49;66.55;;;41.50;;
75165;SDS011;63747;48.042;10.088;2023-03-03T10:08:15;67.85;;;41.40;;
75165;SDS011;63747;48.042;10.088;2023-03-03T10:11:34;65.50;;;41.58;;
75165;SDS011;63747;48.042;10.088;2023-03-03T10:21:35;69.10;;;41.88;;
75165;SDS011;63747;48.042;10.088;2023-03-03T10:48:45;61.35;;;40.53;;
75165;SDS011;63747;48.042;10.088;2023-03-03T10:58:39;63.95;;;40.42;;
75165;SDS011;63747;48.042;10.088;2023-03-03T11:01:48;64.88;;;40.80;;
75165;SDS011;63747;48.042;10.088;2023-03-03T11:12:00;67.40;;;42.10;;
75165;SDS011;63747;48.042;10.088;2023-03-03T11:15:13;61.15;;;40.40;;
75165;SDS011;63747;48.042;10.088;2023-03-03T11:22:08;64.75;;;40.85;;
75165;SDS011;63747;48.042;10.088;2023-03-03T11:25:29;59.13;;;39.47;;
75165;SDS011;63747;48.042;10.088;2023-03-03T11:28:45;62.53;;;40.40;;
75165;SDS011;63747;48.042;10.088;2023-03-03T11:38:33;59.35;;;41.30;;
75165;SDS011;63747;48.042;10.088;2023-03-03T11:45:18;61.28;;;39.25;;
75165;SDS011;63747;48.042;10.088;2023-03-03T12:01:27;63.80;;;41.92;;
75165;SDS011;63747;48.042;10.088;2023-03-03T12:07:58;65.68;;;41.55;;
75165;SDS011;63747;48.042;10.088;2023-03-03T12:14:46;61.67;;;40.58;;
75165;SDS011;63747;48.042;10.088;2023-03-03T12:18:10;58.00;;;40.38;;
75165;SDS011;63747;48.042;10.088;2023-03-03T12:24:53;64.30;;;41.65;;
75165;SDS011;63747;48.042;10.088;2023-03-03T12:38:13;61.50;;;41.20;;
75165;SDS011;63747;48.042;10.088;2023-03-03T12:41:30;57.33;;;38.42;;
75165;SDS011;63747;48.042;10.088;2023-03-03T12:48:43;57.38;;;40.05;;
75165;SDS011;63747;48.042;10.088;2023-03-03T12:51:58;60.50;;;41.63;;
75165;SDS011;63747;48.042;10.088;2023-03-03T12:55:35;58.17;;;39.75;;
75165;SDS011;63747;48.042;10.088;2023-03-03T13:12:34;56.85;;;38.97;;
75165;SDS011;63747;48.042;10.088;2023-03-03T13:15:45;53.28;;;38.55;;
75165;SDS011;63747;48.042;10.088;2023-03-03T13:18:57;55.38;;;39.63;;
75165;SDS011;63747;48.042;10.088;2023-03-03T13:31:50;56.45;;;39.65;;
75165;SDS011;63747;48.042;10.088;2023-03-03T13:35:06;52.53;;;38.95;;
75165;SDS011;63747;48.042;10.088;2023-03-03T13:38:21;62.53;;;40.53;;
75165;SDS011;63747;48.042;10.088;2023-03-03T13:41:29;55.55;;;39.30;;
75165;SDS011;63747;48.042;10.088;2023-03-03T13:44:39;60.95;;;38.53;;
75165;SDS011;63747;48.042;10.088;2023-03-03T13:50:56;61.50;;;40.20;;
75165;SDS011;63747;48.042;10.088;2023-03-03T13:54:15;55.97;;;39.58;;
75165;SDS011;63747;48.042;10.088;2023-03-03T14:07:17;62.22;;;41.00;;
75165;SDS011;63747;48.042;10.088;2023-03-03T14:20:39;55.92;;;40.67;;
75165;SDS011;63747;48.042;10.088;2023-03-03T14:23:57;59.00;;;39.95;;
75165;SDS011;63747;48.042;10.088;2023-03-03T14:27:03;58.10;;;39.88;;
75165;SDS011;63747;48.042;10.088;2023-03-03T14:33:27;54.95;;;39.00;;
75165;SDS011;63747;48.042;10.088;2023-03-03T14:36:32;55.30;;;39.25;;
75165;SDS011;63747;48.042;10.088;2023-03-03T14:39:38;59.60;;;41.90;;
75165;SDS011;63747;48.042;10.088;2023-03-03T14:45:47;63.40;;;41.55;;
75165;SDS011;63747;48.042;10.088;2023-03-03T14:48:49;57.27;;;39.30;;
75165;SDS011;63747;48.042;10.088;2023-03-03T14:51:51;57.28;;;39.08;;
75165;SDS011;63747;48.042;10.088;2023-03-03T14:54:56;54.13;;;39.27;;
75165;SDS011;63747;48.042;10.088;2023-03-03T14:58:06;58.65;;;40.38;;
75165;SDS011;63747;48.042;10.088;2023-03-03T15:01:33;58.55;;;41.25;;
75165;SDS011;63747;48.042;10.088;2023-03-03T15:04:35;62.67;;;40.80;;
75165;SDS011;63747;48.042;10.088;2023-03-03T15:07:36;56.08;;;39.97;;
75165;SDS011;63747;48.042;10.088;2023-03-03T15:10:40;54.20;;;39.83;;
75165;SDS011;63747;48.042;10.088;2023-03-03T15:13:43;57.33;;;38.15;;
75165;SDS011;63747;48.042;10.088;2023-03-03T15:16:43;59.93;;;41.43;;
75165;SDS011;63747;48.042;10.088;2023-03-03T15:33:06;56.47;;;41.35;;
75165;SDS011;63747;48.042;10.088;2023-03-03T15:42:49;60.63;;;41.75;;
75165;SDS011;63747;48.042;10.088;2023-03-03T16:06:10;57.58;;;39.88;;
75165;SDS011;63747;48.042;10.088;2023-03-03T16:10:00;59.00;;;40.65;;
75165;SDS011;63747;48.042;10.088;2023-03-03T16:12:46;63.67;;;41.70;;
75165;SDS011;63747;48.042;10.088;2023-03-03T16:16:19;60.22;;;42.60;;
75165;SDS011;63747;48.042;10.088;2023-03-03T16:22:45;61.28;;;40.60;;
75165;SDS011;63747;48.042;10.088;2023-03-03T16:29:27;60.63;;;40.42;;
75165;SDS011;63747;48.042;10.088;2023-03-03T16:32:40;64.43;;;43.28;;
75165;SDS011;63747;48.042;10.088;2023-03-03T16:35:48;61.33;;;42.20;;
75165;SDS011;63747;48.042;10.088;2023-03-03T16:42:06;56.78;;;40.45;;
75165;SDS011;63747;48.042;10.088;2023-03-03T16:45:21;57.75;;;40.72;;
75165;SDS011;63747;48.042;10.088;2023-03-03T16:51:57;63.03;;;42.08;;
75165;SDS011;63747;48.042;10.088;2023-03-03T16:55:10;62.00;;;42.25;;
75165;SDS011;63747;48.042;10.088;2023-03-03T17:01:47;61.45;;;42.53;;
75165;SDS011;63747;48.042;10.088;2023-03-03T17:04:57;64.65;;;42.22;;
75165;SDS011;63747;48.042;10.088;2023-03-03T17:11:34;59.90;;;41.83;;
75165;SDS011;63747;48.042;10.088;2023-03-03T17:14:59;66.25;;;42.72;;
75165;SDS011;63747;48.042;10.088;2023-03-03T17:18:59;61.08;;;41.83;;
75165;SDS011;63747;48.042;10.088;2023-03-03T17:28:36;59.58;;;41.72;;
75165;SDS011;63747;48.042;10.088;2023-03-03T17:31:46;63.60;;;44.03;;
75165;SDS011;63747;48.042;10.088;2023-03-03T17:38:22;62.80;;;42.78;;
75165;SDS011;63747;48.042;10.088;2023-03-03T17:41:48;63.40;;;43.35;;
75165;SDS011;63747;48.042;10.088;2023-03-03T17:45:06;73.38;;;50.58;;
75165;SDS011;63747;48.042;10.088;2023-03-03T17:48:19;71.13;;;49.38;;
75165;SDS011;63747;48.042;10.088;2023-03-03T18:05:17;59.50;;;41.85;;
75165;SDS011;63747;48.042;10.088;2023-03-03T18:08:46;65.53;;;42.97;;
75165;SDS011;63747;48.042;10.088;2023-03-03T18:15:13;79.15;;;50.47;;
75165;SDS011;63747;48.042;10.088;2023-03-03T18:21:54;71.55;;;47.80;;
75165;SDS011;63747;48.042;10.088;2023-03-03T18:25:08;72.00;;;49.35;;
75165;SDS011;63747;48.042;10.088;2023-03-03T18:28:14;93.10;;;53.85;;
75165;SDS011;63747;48.042;10.088;2023-03-03T18:31:21;88.43;;;52.22;;
75165;SDS011;63747;48.042;10.088;2023-03-03T18:34:37;80.63;;;50.88;;
75165;SDS011;63747;48.042;10.088;2023-03-03T18:37:40;78.22;;;50.75;;
75165;SDS011;63747;48.042;10.088;2023-03-03T18:44:24;122.00;;;64.67;;
75165;SDS011;63747;48.042;10.088;2023-03-03T18:51:08;75.05;;;48.28;;
75165;SDS011;63747;48.042;10.088;2023-03-03T18:57:16;76.22;;;48.60;;
75165;SDS011;63747;48.042;10.088;2023-03-03T19:00:22;72.72;;;48.30;;
75165;SDS011;63747;48.042;10.088;2023-03-03T19:09:44;105.53;;;60.00;;
75165;SDS011;63747;48.042;10.088;2023-03-03T19:12:52;92.40;;;55.80;;
75165;SDS011;63747;48.042;10.088;2023-03-03T19:15:55;90.97;;;55.35;;
75165;SDS011;63747;48.042;10.088;2023-03-03T19:18:59;78.57;;;48.10;;
75165;SDS011;63747;48.042;10.088;2023-03-03T19:22:22;80.78;;;50.50;;
75165;SDS011;63747;48.042;10.088;2023-03-03T19:25:26;71.88;;;46.60;;
75165;SDS011;63747;48.042;10.088;2023-03-03T19:28:31;67.65;;;46.33;;
75165;SDS011;63747;48.042;10.088;2023-03-03T19:38:16;75.10;;;46.28;;
75165;SDS011;63747;48.042;10.088;2023-03-03T19:48:04;81.03;;;50.88;;
75165;SDS011;63747;48.042;10.088;2023-03-03T20:11:27;82.25;;;51.08;;
75165;SDS011;63747;48.042;10.088;2023-03-03T20:44:24;71.18;;;45.70;;
75165;SDS011;63747;48.042;10.088;2023-03-03T20:51:21;69.00;;;43.33;;
75165;SDS011;63747;48.042;10.088;2023-03-03T20:58:17;81.20;;;49.37;;
75165;SDS011;63747;48.042;10.088;2023-03-03T21:02:00;94.72;;;51.90;;
75165;SDS011;63747;48.042;10.088;2023-03-03T21:05:07;103.97;;;54.40;;
75165;SDS011;63747;48.042;10.088;2023-03-03T21:08:13;79.65;;;47.00;;
75165;SDS011;63747;48.042;10.088;2023-03-03T21:11:15;87.77;;;49.90;;
75165;SDS011;63747;48.042;10.088;2023-03-03T21:14:22;78.93;;;47.30;;
75165;SDS011;63747;48.042;10.088;2023-03-03T21:17:26;97.25;;;53.28;;
75165;SDS011;63747;48.042;10.088;2023-03-03T21:23:29;84.77;;;51.00;;
75165;SDS011;63747;48.042;10.088;2023-03-03T21:30:04;76.07;;;46.10;;
75165;SDS011;63747;48.042;10.088;2023-03-03T21:33:07;76.70;;;45.37;;
75165;SDS011;63747;48.042;10.088;2023-03-03T21:36:09;84.97;;;46.97;;
75165;SDS011;63747;48.042;10.088;2023-03-03T21:39:22;75.43;;;44.58;;
75165;SDS011;63747;48.042;10.088;2023-03-03T21:42:38;80.03;;;47.10;;
75165;SDS011;63747;48.042;10.088;2023-03-03T21:45:40;78.80;;;47.72;;
75165;SDS011;63747;48.042;10.088;2023-03-03T21:48:43;81.40;;;47.45;;
75165;SDS011;63747;48.042;10.088;2023-03-03T21:51:44;95.47;;;52.43;;
75165;SDS011;63747;48.042;10.088;2023-03-03T21:54:45;86.53;;;47.93;;
75165;SDS011;63747;48.042;10.088;2023-03-03T21:57:47;85.00;;;47.50;;
75165;SDS011;63747;48.042;10.088;2023-03-03T22:00:47;80.43;;;45.50;;
75165;SDS011;63747;48.042;10.088;2023-03-03T22:03:48;88.13;;;49.10;;
75165;SDS011;63747;48.042;10.088;2023-03-03T22:06:49;82.53;;;46.80;;
75165;SDS011;63747;48.042;10.088;2023-03-03T22:09:51;85.40;;;47.25;;
75165;SDS011;63747;48.042;10.088;2023-03-03T22:12:52;88.57;;;52.33;;
75165;SDS011;63747;48.042;10.088;2023-03-03T22:15:52;83.90;;;51.40;;
75165;SDS011;63747;48.042;10.088;2023-03-03T22:18:54;107.78;;;58.78;;
75165;SDS011;63747;48.042;10.088;2023-03-03T22:21:54;111.00;;;58.37;;
75165;SDS011;63747;48.042;10.088;2023-03-03T22:24:55;109.00;;;58.67;;
75165;SDS011;63747;48.042;10.088;2023-03-03T22:27:56;92.17;;;49.63;;
75165;SDS011;63747;48.042;10.088;2023-03-03T22:30:56;86.20;;;49.07;;
75165;SDS011;63747;48.042;10.088;2023-03-03T22:33:57;79.47;;;44.00;;
75165;SDS011;63747;48.042;10.088;2023-03-03T22:36:58;72.80;;;43.67;;
75165;SDS011;63747;48.042;10.088;2023-03-03T22:39:59;73.23;;;42.53;;
75165;SDS011;63747;48.042;10.088;2023-03-03T22:43:00;75.13;;;41.75;;
75165;SDS011;63747;48.042;10.088;2023-03-03T22:46:01;69.53;;;41.27;;
75165;SDS011;63747;48.042;10.088;2023-03-03T22:49:01;75.93;;;43.17;;
75165;SDS011;63747;48.042;10.088;2023-03-03T22:52:02;82.50;;;42.77;;
75165;SDS011;63747;48.042;10.088;2023-03-03T22:55:03;76.53;;;43.63;;
75165;SDS011;63747;48.042;10.088;2023-03-03T22:58:05;85.90;;;44.95;;
75165;SDS011;63747;48.042;10.088;2023-03-03T23:01:07;83.03;;;44.55;;
75165;SDS011;63747;48.042;10.088;2023-03-03T23:04:07;76.50;;;42.70;;
75165;SDS011;63747;48.042;10.088;2023-03-03T23:07:08;82.93;;;44.17;;
75165;SDS011;63747;48.042;10.088;2023-03-03T23:10:09;75.27;;;43.47;;
75165;SDS011;63747;48.042;10.088;2023-03-03T23:13:10;70.93;;;42.13;;
75165;SDS011;63747;48.042;10.088;2023-03-03T23:16:10;75.40;;;42.73;;
75165;SDS011;63747;48.042;10.088;2023-03-03T23:19:11;74.87;;;42.13;;
75165;SDS011;63747;48.042;10.088;2023-03-03T23:22:12;75.43;;;42.67;;
75165;SDS011;63747;48.042;10.088;2023-03-03T23:25:13;73.87;;;41.90;;
75165;SDS011;63747;48.042;10.088;2023-03-03T23:28:14;72.03;;;41.42;;
75165;SDS011;63747;48.042;10.088;2023-03-03T23:31:15;75.50;;;42.00;;
75165;SDS011;63747;48.042;10.088;2023-03-03T23:34:16;76.17;;;42.37;;
75165;SDS011;63747;48.042;10.088;2023-03-03T23:37:16;74.33;;;41.67;;
75165;SDS011;63747;48.042;10.088;2023-03-03T23:40:17;69.53;;;38.80;;
75165;SDS011;63747;48.042;10.088;2023-03-03T23:43:18;69.60;;;40.30;;
75165;SDS011;63747;48.042;10.088;2023-03-03T23:46:18;69.53;;;39.30;;
75165;SDS011;63747;48.042;10.088;2023-03-03T23:49:19;73.30;;;41.57;;
75165;SDS011;63747;48.042;10.088;2023-03-03T23:52:20;70.90;;;40.10;;
75165;SDS011;63747;48.042;10.088;2023-03-03T23:55:20;78.07;;;43.47;;
75165;SDS011;63747;48.042;10.088;2023-03-03T23:58:21;79.90;;;42.10;;
